sensor_id;sensor_type;location;lat;lon;timestamp;pressure;altitude;pressure_sealevel;temperature;humidity
3796;BME280;1913;50.660;7.834;2023-08-06T00:01:47;151456.34;;;13.83;100.00
3796;BME280;1913;50.660;7.834;2023-08-06T00:04:12;151461.41;;;13.85;100.00
3796;BME280;1913;50.660;7.834;2023-08-06T00:06:37;151467.72;;;13.87;100.00
3796;BME280;1913;50.660;7.834;2023-08-06T00:09:03;151482.78;;;13.94;100.00
3796;BME280;1913;50.660;7.834;2023-08-06T00:11:28;151500.44;;;14.01;100.00
3796;BME280;1913;50.660;7.834;2023-08-06T00:13:53;151509.25;;;14.04;100.00
3796;BME280;1913;50.660;7.834;2023-08-06T00:16:19;151492.84;;;13.98;100.00
3796;BME280;1913;50.660;7.834;2023-08-06T00:18:44;151514.31;;;14.06;100.00
3796;BME280;1913;50.660;7.834;2023-08-06T00:21:10;151510.50;;;14.05;100.00
3796;BME280;1913;50.660;7.834;2023-08-06T00:23:37;151506.72;;;14.03;100.00
3796;BME280;1913;50.660;7.834;2023-08-06T00:26:02;151508.00;;;14.04;100.00
3796;BME280;1913;50.660;7.834;2023-08-06T00:28:28;151523.13;;;14.10;100.00
3796;BME280;1913;50.660;7.834;2023-08-06T00:30:57;151518.06;;;14.08;100.00
3796;BME280;1913;50.660;7.834;2023-08-06T00:33:23;151490.34;;;13.97;100.00
3796;BME280;1913;50.660;7.834;2023-08-06T00:35:49;151508.00;;;14.04;100.00
3796;BME280;1913;50.660;7.834;2023-08-06T00:38:15;151492.84;;;13.98;100.00
3796;BME280;1913;50.660;7.834;2023-08-06T00:40:40;151489.09;;;13.96;100.00
3796;BME280;1913;50.660;7.834;2023-08-06T00:43:06;151482.78;;;13.94;100.00
3796;BME280;1913;50.660;7.834;2023-08-06T00:45:34;151494.16;;;13.98;100.00
3796;BME280;1913;50.660;7.834;2023-08-06T00:48:01;151495.41;;;13.99;100.00
3796;BME280;1913;50.660;7.834;2023-08-06T00:50:27;151475.22;;;13.90;100.00
3796;BME280;1913;50.660;7.834;2023-08-06T00:52:53;151485.34;;;13.95;100.00
3796;BME280;1913;50.660;7.834;2023-08-06T00:55:18;151472.72;;;13.89;100.00
3796;BME280;1913;50.660;7.834;2023-08-06T00:57:44;151489.09;;;13.96;100.00
3796;BME280;1913;50.660;7.834;2023-08-06T01:00:10;151497.91;;;14.00;100.00
3796;BME280;1913;50.660;7.834;2023-08-06T01:02:36;151479.03;;;13.92;100.00
3796;BME280;1913;50.660;7.834;2023-08-06T01:05:02;151502.97;;;14.02;100.00
3796;BME280;1913;50.660;7.834;2023-08-06T01:13:32;151471.47;;;13.89;100.00
3796;BME280;1913;50.660;7.834;2023-08-06T01:15:58;151462.66;;;13.85;100.00
3796;BME280;1913;50.660;7.834;2023-08-06T01:18:27;151463.91;;;13.86;100.00
3796;BME280;1913;50.660;7.834;2023-08-06T01:20:52;151439.97;;;13.76;100.00
3796;BME280;1913;50.660;7.834;2023-08-06T01:23:18;151428.66;;;13.72;100.00
3796;BME280;1913;50.660;7.834;2023-08-06T01:25:53;151427.41;;;13.71;100.00
3796;BME280;1913;50.660;7.834;2023-08-06T01:30:56;151429.91;;;13.72;100.00
3796;BME280;1913;50.660;7.834;2023-08-06T01:33:24;151434.97;;;13.74;100.00
3796;BME280;1913;50.660;7.834;2023-08-06T01:35:51;151417.34;;;13.67;100.00
3796;BME280;1913;50.660;7.834;2023-08-06T01:38:17;151442.53;;;13.77;100.00
3796;BME280;1913;50.660;7.834;2023-08-06T01:40:43;151452.59;;;13.81;100.00
3796;BME280;1913;50.660;7.834;2023-08-06T01:43:08;151442.53;;;13.77;100.00
3796;BME280;1913;50.660;7.834;2023-08-06T01:45:33;151443.78;;;13.78;100.00
3796;BME280;1913;50.660;7.834;2023-08-06T01:47:59;151476.53;;;13.91;100.00
3796;BME280;1913;50.660;7.834;2023-08-06T01:50:24;151460.16;;;13.84;100.00
3796;BME280;1913;50.660;7.834;2023-08-06T01:52:50;151463.91;;;13.86;100.00
3796;BME280;1913;50.660;7.834;2023-08-06T01:55:15;151451.34;;;13.81;100.00
3796;BME280;1913;50.660;7.834;2023-08-06T01:57:41;151456.34;;;13.83;100.00
3796;BME280;1913;50.660;7.834;2023-08-06T02:00:06;151490.34;;;13.97;100.00
3796;BME280;1913;50.660;7.834;2023-08-06T02:02:32;151485.34;;;13.95;100.00
3796;BME280;1913;50.660;7.834;2023-08-06T02:04:59;151468.97;;;13.88;100.00
3796;BME280;1913;50.660;7.834;2023-08-06T02:07:24;151489.09;;;13.96;100.00
3796;BME280;1913;50.660;7.834;2023-08-06T02:09:49;151489.09;;;13.96;100.00
3796;BME280;1913;50.660;7.834;2023-08-06T02:12:15;151468.97;;;13.88;100.00
3796;BME280;1913;50.660;7.834;2023-08-06T02:14:40;151484.03;;;13.94;100.00
3796;BME280;1913;50.660;7.834;2023-08-06T02:17:06;151496.66;;;13.99;100.00
3796;BME280;1913;50.660;7.834;2023-08-06T02:19:31;151500.44;;;14.01;100.00
3796;BME280;1913;50.660;7.834;2023-08-06T02:21:56;151505.50;;;14.03;100.00
3796;BME280;1913;50.660;7.834;2023-08-06T02:24:22;151513.03;;;14.06;100.00
3796;BME280;1913;50.660;7.834;2023-08-06T02:26:47;151502.97;;;14.02;100.00
3796;BME280;1913;50.660;7.834;2023-08-06T02:29:16;151508.00;;;14.04;100.00
3796;BME280;1913;50.660;7.834;2023-08-06T02:31:41;151487.84;;;13.96;100.00
3796;BME280;1913;50.660;7.834;2023-08-06T02:34:06;151472.72;;;13.89;100.00
3796;BME280;1913;50.660;7.834;2023-08-06T02:36:32;151453.84;;;13.82;100.00
3796;BME280;1913;50.660;7.834;2023-08-06T02:38:57;151465.16;;;13.86;100.00
3796;BME280;1913;50.660;7.834;2023-08-06T02:41:22;151448.78;;;13.80;100.00
3796;BME280;1913;50.660;7.834;2023-08-06T02:43:48;151434.97;;;13.74;100.00
3796;BME280;1913;50.660;7.834;2023-08-06T02:46:13;151414.81;;;13.66;100.00
3796;BME280;1913;50.660;7.834;2023-08-06T02:48:38;151437.47;;;13.75;100.00
3796;BME280;1913;50.660;7.834;2023-08-06T02:51:04;151426.16;;;13.71;100.00
3796;BME280;1913;50.660;7.834;2023-08-06T02:53:29;151458.91;;;13.84;100.00
3796;BME280;1913;50.660;7.834;2023-08-06T02:55:55;151447.53;;;13.79;100.00
3796;BME280;1913;50.660;7.834;2023-08-06T02:58:20;151441.28;;;13.77;100.00
3796;BME280;1913;50.660;7.834;2023-08-06T03:00:59;151412.28;;;13.65;100.00
3796;BME280;1913;50.660;7.834;2023-08-06T03:03:24;151437.47;;;13.75;100.00
3796;BME280;1913;50.660;7.834;2023-08-06T03:05:53;151418.59;;;13.68;100.00
3796;BME280;1913;50.660;7.834;2023-08-06T03:08:18;151407.28;;;13.63;100.00
3796;BME280;1913;50.660;7.834;2023-08-06T03:10:50;151390.91;;;13.56;100.00
3796;BME280;1913;50.660;7.834;2023-08-06T03:13:17;151387.09;;;13.55;100.00
3796;BME280;1913;50.660;7.834;2023-08-06T03:15:43;151385.84;;;13.54;100.00
3796;BME280;1913;50.660;7.834;2023-08-06T03:18:08;151382.09;;;13.53;100.00
3796;BME280;1913;50.660;7.834;2023-08-06T03:20:33;151392.16;;;13.57;100.00
3796;BME280;1913;50.660;7.834;2023-08-06T03:22:59;151407.28;;;13.63;100.00
3796;BME280;1913;50.660;7.834;2023-08-06T03:25:24;151424.91;;;13.70;100.00
3796;BME280;1913;50.660;7.834;2023-08-06T03:27:50;151408.53;;;13.63;100.00
3796;BME280;1913;50.660;7.834;2023-08-06T03:30:15;151422.34;;;13.69;100.00
3796;BME280;1913;50.660;7.834;2023-08-06T03:32:41;151403.47;;;13.61;100.00
3796;BME280;1913;50.660;7.834;2023-08-06T03:35:06;151403.47;;;13.61;100.00
3796;BME280;1913;50.660;7.834;2023-08-06T03:37:32;151399.72;;;13.60;100.00
3796;BME280;1913;50.660;7.834;2023-08-06T03:39:57;151416.09;;;13.67;100.00
3796;BME280;1913;50.660;7.834;2023-08-06T03:42:23;151411.03;;;13.64;100.00
3796;BME280;1913;50.660;7.834;2023-08-06T03:44:48;151409.78;;;13.64;100.00
3796;BME280;1913;50.660;7.834;2023-08-06T03:47:13;151417.34;;;13.67;100.00
3796;BME280;1913;50.660;7.834;2023-08-06T03:49:39;151402.22;;;13.61;100.00
3796;BME280;1913;50.660;7.834;2023-08-06T03:52:05;151421.09;;;13.69;100.00
3796;BME280;1913;50.660;7.834;2023-08-06T03:54:30;151417.34;;;13.67;100.00
3796;BME280;1913;50.660;7.834;2023-08-06T03:56:56;151443.78;;;13.78;100.00
3796;BME280;1913;50.660;7.834;2023-08-06T03:59:21;151434.97;;;13.74;100.00
3796;BME280;1913;50.660;7.834;2023-08-06T04:01:47;151428.66;;;13.72;100.00
3796;BME280;1913;50.660;7.834;2023-08-06T04:04:12;151421.09;;;13.69;100.00
3796;BME280;1913;50.660;7.834;2023-08-06T04:06:37;151432.47;;;13.73;100.00
3796;BME280;1913;50.660;7.834;2023-08-06T04:09:03;151465.16;;;13.86;100.00
3796;BME280;1913;50.660;7.834;2023-08-06T04:11:28;151456.34;;;13.83;100.00
3796;BME280;1913;50.660;7.834;2023-08-06T04:13:54;151453.84;;;13.82;100.00
3796;BME280;1913;50.660;7.834;2023-08-06T04:16:20;151437.47;;;13.75;100.00
3796;BME280;1913;50.660;7.834;2023-08-06T04:18:46;151438.72;;;13.76;100.00
3796;BME280;1913;50.660;7.834;2023-08-06T04:21:12;151458.91;;;13.84;100.00
3796;BME280;1913;50.660;7.834;2023-08-06T04:23:37;151423.66;;;13.70;100.00
3796;BME280;1913;50.660;7.834;2023-08-06T04:26:02;151443.78;;;13.78;100.00
3796;BME280;1913;50.660;7.834;2023-08-06T04:28:28;151411.03;;;13.64;100.00
3796;BME280;1913;50.660;7.834;2023-08-06T04:30:54;151406.00;;;13.62;100.00
3796;BME280;1913;50.660;7.834;2023-08-06T04:33:20;151412.28;;;13.65;100.00
3796;BME280;1913;50.660;7.834;2023-08-06T04:35:45;151395.91;;;13.58;100.00
3796;BME280;1913;50.660;7.834;2023-08-06T04:38:11;151395.91;;;13.58;100.00
3796;BME280;1913;50.660;7.834;2023-08-06T04:40:36;151421.09;;;13.69;100.00
3796;BME280;1913;50.660;7.834;2023-08-06T04:43:02;151399.72;;;13.60;100.00
3796;BME280;1913;50.660;7.834;2023-08-06T04:45:27;151384.59;;;13.54;100.00
3796;BME280;1913;50.660;7.834;2023-08-06T04:47:52;151387.09;;;13.55;100.00
3796;BME280;1913;50.660;7.834;2023-08-06T04:50:19;151356.91;;;13.43;100.00
3796;BME280;1913;50.660;7.834;2023-08-06T04:52:44;151349.34;;;13.39;100.00
3796;BME280;1913;50.660;7.834;2023-08-06T04:55:10;151331.72;;;13.32;100.00
3796;BME280;1913;50.660;7.834;2023-08-06T04:57:36;151353.09;;;13.41;100.00
3796;BME280;1913;50.660;7.834;2023-08-06T05:00:02;151369.47;;;13.48;100.00
3796;BME280;1913;50.660;7.834;2023-08-06T05:02:27;151363.22;;;13.45;100.00
3796;BME280;1913;50.660;7.834;2023-08-06T05:04:53;151359.41;;;13.44;100.00
3796;BME280;1913;50.660;7.834;2023-08-06T05:07:18;151375.78;;;13.50;100.00
3796;BME280;1913;50.660;7.834;2023-08-06T05:09:43;151390.91;;;13.56;100.00
3796;BME280;1913;50.660;7.834;2023-08-06T05:12:09;151385.84;;;13.54;100.00
3796;BME280;1913;50.660;7.834;2023-08-06T05:14:34;151389.63;;;13.56;100.00
3796;BME280;1913;50.660;7.834;2023-08-06T05:17:00;151404.72;;;13.62;100.00
3796;BME280;1913;50.660;7.834;2023-08-06T05:19:27;151392.16;;;13.57;100.00
3796;BME280;1913;50.660;7.834;2023-08-06T05:21:52;151377.03;;;13.51;100.00
3796;BME280;1913;50.660;7.834;2023-08-06T05:24:18;151374.53;;;13.50;100.00
3796;BME280;1913;50.660;7.834;2023-08-06T05:26:43;151374.53;;;13.50;100.00
3796;BME280;1913;50.660;7.834;2023-08-06T05:29:11;151407.28;;;13.63;100.00
3796;BME280;1913;50.660;7.834;2023-08-06T05:31:37;151375.78;;;13.50;100.00
3796;BME280;1913;50.660;7.834;2023-08-06T05:34:02;151385.84;;;13.54;100.00
3796;BME280;1913;50.660;7.834;2023-08-06T05:36:28;151389.63;;;13.56;100.00
3796;BME280;1913;50.660;7.834;2023-08-06T05:38:53;151397.16;;;13.59;100.00
3796;BME280;1913;50.660;7.834;2023-08-06T05:41:19;151389.63;;;13.56;100.00
3796;BME280;1913;50.660;7.834;2023-08-06T05:43:44;151383.34;;;13.53;100.00
3796;BME280;1913;50.660;7.834;2023-08-06T05:46:10;151407.28;;;13.63;100.00
3796;BME280;1913;50.660;7.834;2023-08-06T05:48:35;151429.91;;;13.72;100.00
3796;BME280;1913;50.660;7.834;2023-08-06T05:51:01;151448.78;;;13.80;100.00
3796;BME280;1913;50.660;7.834;2023-08-06T05:53:26;151446.28;;;13.79;100.00
3796;BME280;1913;50.660;7.834;2023-08-06T05:55:51;151458.91;;;13.84;100.00
3796;BME280;1913;50.660;7.834;2023-08-06T05:58:17;151422.34;;;13.69;100.00
3796;BME280;1913;50.660;7.834;2023-08-06T06:00:43;151492.84;;;13.98;100.00
3796;BME280;1913;50.660;7.834;2023-08-06T06:03:08;151480.28;;;13.93;100.00
3796;BME280;1913;50.660;7.834;2023-08-06T06:05:33;151492.84;;;13.98;100.00
3796;BME280;1913;50.660;7.834;2023-08-06T06:07:59;151472.72;;;13.89;100.00
3796;BME280;1913;50.660;7.834;2023-08-06T06:10:24;151475.22;;;13.90;100.00
3796;BME280;1913;50.660;7.834;2023-08-06T06:12:50;151479.03;;;13.92;100.00
3796;BME280;1913;50.660;7.834;2023-08-06T06:15:15;151479.03;;;13.92;100.00
3796;BME280;1913;50.660;7.834;2023-08-06T06:17:40;151484.03;;;13.94;100.00
3796;BME280;1913;50.660;7.834;2023-08-06T06:20:06;151500.44;;;14.01;100.00
3796;BME280;1913;50.660;7.834;2023-08-06T06:22:32;151549.56;;;14.21;100.00
3796;BME280;1913;50.660;7.834;2023-08-06T06:24:57;151557.13;;;14.24;100.00
3796;BME280;1913;50.660;7.834;2023-08-06T06:27:22;151563.41;;;14.26;100.00
3796;BME280;1913;50.660;7.834;2023-08-06T06:29:48;151562.16;;;14.26;100.00
3796;BME280;1913;50.660;7.834;2023-08-06T06:32:13;151523.13;;;14.10;100.00
3796;BME280;1913;50.660;7.834;2023-08-06T06:34:38;151557.13;;;14.24;100.00
3796;BME280;1913;50.660;7.834;2023-08-06T06:37:04;151533.19;;;14.14;100.00
3796;BME280;1913;50.660;7.834;2023-08-06T06:39:30;151559.63;;;14.25;100.00
3796;BME280;1913;50.660;7.834;2023-08-06T06:41:55;151545.75;;;14.19;100.00
3796;BME280;1913;50.660;7.834;2023-08-06T06:44:20;151563.41;;;14.26;100.00
3796;BME280;1913;50.660;7.834;2023-08-06T06:46:46;151569.72;;;14.29;100.00
3796;BME280;1913;50.660;7.834;2023-08-06T06:49:11;151514.31;;;14.06;100.00
3796;BME280;1913;50.660;7.834;2023-08-06T06:51:37;151547.06;;;14.20;100.00
3796;BME280;1913;50.660;7.834;2023-08-06T06:54:02;151558.38;;;14.24;100.00
3796;BME280;1913;50.660;7.834;2023-08-06T06:56:28;151525.63;;;14.11;100.00
3796;BME280;1913;50.660;7.834;2023-08-06T06:58:53;151516.81;;;14.07;100.00
3796;BME280;1913;50.660;7.834;2023-08-06T07:01:19;151545.75;;;14.19;100.00
3796;BME280;1913;50.660;7.834;2023-08-06T07:03:44;151582.31;;;14.34;100.00
3796;BME280;1913;50.660;7.834;2023-08-06T07:06:09;151548.31;;;14.20;100.00
3796;BME280;1913;50.660;7.834;2023-08-06T07:08:35;151506.72;;;14.03;100.00
3796;BME280;1913;50.660;7.834;2023-08-06T07:11:02;151519.31;;;14.08;100.00
3796;BME280;1913;50.660;7.834;2023-08-06T07:13:28;151505.50;;;14.03;100.00
3796;BME280;1913;50.660;7.834;2023-08-06T07:15:54;151516.81;;;14.07;100.00
3796;BME280;1913;50.660;7.834;2023-08-06T07:18:20;151515.56;;;14.07;100.00
3796;BME280;1913;50.660;7.834;2023-08-06T07:20:53;151515.56;;;14.07;100.00
3796;BME280;1913;50.660;7.834;2023-08-06T07:23:23;151516.81;;;14.07;100.00
3796;BME280;1913;50.660;7.834;2023-08-06T07:25:49;151460.16;;;13.84;100.00
3796;BME280;1913;50.660;7.834;2023-08-06T07:28:15;151495.41;;;13.99;100.00
3796;BME280;1913;50.660;7.834;2023-08-06T07:30:42;151486.59;;;13.95;100.00
3796;BME280;1913;50.660;7.834;2023-08-06T07:33:07;151473.97;;;13.90;100.00
3796;BME280;1913;50.660;7.834;2023-08-06T07:35:34;151465.16;;;13.86;100.00
3796;BME280;1913;50.660;7.834;2023-08-06T07:37:59;151443.78;;;13.78;100.00
3796;BME280;1913;50.660;7.834;2023-08-06T07:40:24;151500.44;;;14.01;100.00
3796;BME280;1913;50.660;7.834;2023-08-06T07:42:50;151489.09;;;13.96;100.00
3796;BME280;1913;50.660;7.834;2023-08-06T07:45:15;151487.84;;;13.96;100.00
3796;BME280;1913;50.660;7.834;2023-08-06T07:47:41;151497.91;;;14.00;100.00
3796;BME280;1913;50.660;7.834;2023-08-06T07:50:08;151547.06;;;14.20;100.00
3796;BME280;1913;50.660;7.834;2023-08-06T07:52:33;151508.00;;;14.04;100.00
3796;BME280;1913;50.660;7.834;2023-08-06T07:54:59;151529.44;;;14.12;100.00
3796;BME280;1913;50.660;7.834;2023-08-06T07:57:25;151589.84;;;14.37;100.00
3796;BME280;1913;50.660;7.834;2023-08-06T07:59:51;151610.03;;;14.45;100.00
3796;BME280;1913;50.660;7.834;2023-08-06T08:02:19;151668.00;;;14.69;100.00
3796;BME280;1913;50.660;7.834;2023-08-06T08:04:44;151690.72;;;14.78;100.00
3796;BME280;1913;50.660;7.834;2023-08-06T08:07:12;151717.19;;;14.89;100.00
3796;BME280;1913;50.660;7.834;2023-08-06T08:09:38;151719.69;;;14.90;100.00
3796;BME280;1913;50.660;7.834;2023-08-06T08:12:03;151777.66;;;15.13;100.00
3796;BME280;1913;50.660;7.834;2023-08-06T08:14:29;151733.56;;;14.95;100.00
3796;BME280;1913;50.660;7.834;2023-08-06T08:16:58;151806.66;;;15.25;100.00
3796;BME280;1913;50.660;7.834;2023-08-06T08:19:24;151828.09;;;15.33;100.00
3796;BME280;1913;50.660;7.834;2023-08-06T08:21:49;151903.72;;;15.64;100.00
3796;BME280;1913;50.660;7.834;2023-08-06T08:24:14;151833.13;;;15.36;100.00
3796;BME280;1913;50.660;7.834;2023-08-06T08:26:40;151797.81;;;15.21;100.00
3796;BME280;1913;50.660;7.834;2023-08-06T08:29:06;151794.06;;;15.20;100.00
3796;BME280;1913;50.660;7.834;2023-08-06T08:31:31;151811.72;;;15.27;100.00
3796;BME280;1913;50.660;7.834;2023-08-06T08:34:03;151645.38;;;14.59;100.00
3796;BME280;1913;50.660;7.834;2023-08-06T08:36:29;151649.13;;;14.61;100.00
3796;BME280;1913;50.660;7.834;2023-08-06T08:38:54;151583.59;;;14.34;100.00
3796;BME280;1913;50.660;7.834;2023-08-06T08:41:20;151596.16;;;14.40;100.00
3796;BME280;1913;50.660;7.834;2023-08-06T08:43:46;151596.16;;;14.40;100.00
3796;BME280;1913;50.660;7.834;2023-08-06T08:46:14;151635.28;;;14.55;100.00
3796;BME280;1913;50.660;7.834;2023-08-06T08:48:39;151699.53;;;14.81;100.00
3796;BME280;1913;50.660;7.834;2023-08-06T08:51:06;151650.38;;;14.61;100.00
3796;BME280;1913;50.660;7.834;2023-08-06T08:53:31;151674.31;;;14.71;100.00
3796;BME280;1913;50.660;7.834;2023-08-06T08:55:58;151664.25;;;14.67;100.00
3796;BME280;1913;50.660;7.834;2023-08-06T08:58:24;151703.28;;;14.83;100.00
3796;BME280;1913;50.660;7.834;2023-08-06T09:00:49;151678.13;;;14.73;100.00
3796;BME280;1913;50.660;7.834;2023-08-06T09:03:16;151627.72;;;14.52;100.00
3796;BME280;1913;50.660;7.834;2023-08-06T09:05:44;151608.78;;;14.45;100.00
3796;BME280;1913;50.660;7.834;2023-08-06T09:08:11;151612.53;;;14.46;100.00
3796;BME280;1913;50.660;7.834;2023-08-06T09:10:41;151588.59;;;14.36;100.00
3796;BME280;1913;50.660;7.834;2023-08-06T09:13:08;151593.66;;;14.38;100.00
3796;BME280;1913;50.660;7.834;2023-08-06T09:15:34;151603.72;;;14.43;100.00
3796;BME280;1913;50.660;7.834;2023-08-06T09:18:00;151612.53;;;14.46;100.00
3796;BME280;1913;50.660;7.834;2023-08-06T09:20:34;151661.75;;;14.66;100.00
3796;BME280;1913;50.660;7.834;2023-08-06T09:23:07;151690.72;;;14.78;100.00
3796;BME280;1913;50.660;7.834;2023-08-06T09:25:32;151691.97;;;14.78;100.00
3796;BME280;1913;50.660;7.834;2023-08-06T09:27:57;151729.75;;;14.94;100.00
3796;BME280;1913;50.660;7.834;2023-08-06T09:30:30;151695.78;;;14.80;100.00
3796;BME280;1913;50.660;7.834;2023-08-06T09:32:56;151671.81;;;14.70;100.00
3796;BME280;1913;50.660;7.834;2023-08-06T09:35:22;151679.38;;;14.73;100.00
3796;BME280;1913;50.660;7.834;2023-08-06T09:37:47;151722.25;;;14.91;100.00
3796;BME280;1913;50.660;7.834;2023-08-06T09:40:29;151757.53;;;15.05;100.00
3796;BME280;1913;50.660;7.834;2023-08-06T09:42:55;151727.25;;;14.93;100.00
3796;BME280;1913;50.660;7.834;2023-08-06T09:45:21;151773.88;;;15.12;100.00
3796;BME280;1913;50.660;7.834;2023-08-06T09:47:50;151772.59;;;15.11;100.00
3796;BME280;1913;50.660;7.834;2023-08-06T09:50:19;151766.34;;;15.08;100.00
3796;BME280;1913;50.660;7.834;2023-08-06T09:52:48;151753.72;;;15.03;100.00
3796;BME280;1913;50.660;7.834;2023-08-06T09:55:15;151804.13;;;15.24;100.00
3796;BME280;1913;50.660;7.834;2023-08-06T09:57:41;151800.31;;;15.22;100.00
3796;BME280;1913;50.660;7.834;2023-08-06T10:00:08;151891.13;;;15.59;100.00
3796;BME280;1913;50.660;7.834;2023-08-06T10:02:38;151853.28;;;15.44;100.00
3796;BME280;1913;50.660;7.834;2023-08-06T10:05:05;151852.00;;;15.43;100.00
3796;BME280;1913;50.660;7.834;2023-08-06T10:07:31;151844.44;;;15.40;100.00
3796;BME280;1913;50.660;7.834;2023-08-06T10:09:56;151826.81;;;15.33;100.00
3796;BME280;1913;50.660;7.834;2023-08-06T10:12:23;151891.13;;;15.59;100.00
3796;BME280;1913;50.660;7.834;2023-08-06T10:14:50;151945.38;;;15.81;100.00
3796;BME280;1913;50.660;7.834;2023-08-06T10:17:19;151944.13;;;15.80;100.00
3796;BME280;1913;50.660;7.834;2023-08-06T10:19:46;151930.22;;;15.75;100.00
3796;BME280;1913;50.660;7.834;2023-08-06T10:22:13;151956.72;;;15.86;100.00
3796;BME280;1913;50.660;7.834;2023-08-06T10:24:53;151959.28;;;15.87;100.00
3796;BME280;1913;50.660;7.834;2023-08-06T10:27:35;151913.84;;;15.68;100.00
3796;BME280;1913;50.660;7.834;2023-08-06T10:32:49;151912.59;;;15.68;100.00
3796;BME280;1913;50.660;7.834;2023-08-06T10:37:58;151950.44;;;15.83;100.00
3796;BME280;1913;50.660;7.834;2023-08-06T10:40:24;151931.50;;;15.75;100.00
3796;BME280;1913;50.660;7.834;2023-08-06T10:42:51;151792.81;;;15.19;100.00
3796;BME280;1913;50.660;7.834;2023-08-06T10:45:18;151741.13;;;14.98;100.00
3796;BME280;1913;50.660;7.834;2023-08-06T10:47:44;151739.88;;;14.98;100.00
3796;BME280;1913;50.660;7.834;2023-08-06T10:50:17;151695.78;;;14.80;100.00
3796;BME280;1913;50.660;7.834;2023-08-06T10:52:44;151698.28;;;14.81;100.00
3796;BME280;1913;50.660;7.834;2023-08-06T10:55:10;151654.19;;;14.63;100.00
3796;BME280;1913;50.660;7.834;2023-08-06T10:57:36;151592.41;;;14.38;100.00
3796;BME280;1913;50.660;7.834;2023-08-06T11:00:03;151570.97;;;14.29;100.00
3796;BME280;1913;50.660;7.834;2023-08-06T11:02:33;151525.63;;;14.11;100.00
3796;BME280;1913;50.660;7.834;2023-08-06T11:05:05;151504.22;;;14.02;100.00
3796;BME280;1913;50.660;7.834;2023-08-06T11:07:30;151492.84;;;13.98;100.00
3796;BME280;1913;50.660;7.834;2023-08-06T11:10:22;151479.03;;;13.92;100.00
3796;BME280;1913;50.660;7.834;2023-08-06T11:12:46;151442.53;;;13.77;100.00
3796;BME280;1913;50.660;7.834;2023-08-06T11:15:12;151414.81;;;13.66;100.00
3796;BME280;1913;50.660;7.834;2023-08-06T11:17:39;151398.47;;;13.59;100.00
3796;BME280;1913;50.660;7.834;2023-08-06T11:20:05;151392.16;;;13.57;100.00
3796;BME280;1913;50.660;7.834;2023-08-06T11:22:31;151368.22;;;13.47;100.00
3796;BME280;1913;50.660;7.834;2023-08-06T11:24:57;151348.09;;;13.39;100.00
3796;BME280;1913;50.660;7.834;2023-08-06T11:27:22;151322.91;;;13.29;100.00
3796;BME280;1913;50.660;7.834;2023-08-06T11:29:48;151297.66;;;13.18;100.00
3796;BME280;1913;50.660;7.834;2023-08-06T11:32:13;151272.50;;;13.08;100.00
3796;BME280;1913;50.660;7.834;2023-08-06T11:34:39;151242.31;;;12.96;100.00
3796;BME280;1913;50.660;7.834;2023-08-06T11:37:05;151258.66;;;13.03;100.00
3796;BME280;1913;50.660;7.834;2023-08-06T11:39:33;151225.94;;;12.89;100.00
3796;BME280;1913;50.660;7.834;2023-08-06T11:41:58;151227.19;;;12.90;100.00
3796;BME280;1913;50.660;7.834;2023-08-06T11:44:26;151222.19;;;12.88;100.00
3796;BME280;1913;50.660;7.834;2023-08-06T11:46:55;151212.06;;;12.84;100.00
3796;BME280;1913;50.660;7.834;2023-08-06T11:52:18;151224.69;;;12.89;100.00
3796;BME280;1913;50.660;7.834;2023-08-06T11:57:24;151166.78;;;12.65;100.00
3796;BME280;1913;50.660;7.834;2023-08-06T11:59:50;151163.03;;;12.64;100.00
3796;BME280;1913;50.660;7.834;2023-08-06T12:02:15;151151.72;;;12.59;100.00
3796;BME280;1913;50.660;7.834;2023-08-06T12:07:29;151107.63;;;12.41;100.00
3796;BME280;1913;50.660;7.834;2023-08-06T12:09:56;151121.50;;;12.47;100.00
3796;BME280;1913;50.660;7.834;2023-08-06T12:12:22;151120.22;;;12.46;100.00
3796;BME280;1913;50.660;7.834;2023-08-06T12:14:47;151088.75;;;12.34;100.00
3796;BME280;1913;50.660;7.834;2023-08-06T12:17:12;151106.38;;;12.41;100.00
3796;BME280;1913;50.660;7.834;2023-08-06T12:19:38;151105.13;;;12.40;100.00
3796;BME280;1913;50.660;7.834;2023-08-06T12:22:03;151100.13;;;12.38;100.00
3796;BME280;1913;50.660;7.834;2023-08-06T12:24:29;151095.06;;;12.36;100.00
3796;BME280;1913;50.660;7.834;2023-08-06T12:26:57;151100.13;;;12.38;100.00
3796;BME280;1913;50.660;7.834;2023-08-06T12:29:23;151102.63;;;12.39;100.00
3796;BME280;1913;50.660;7.834;2023-08-06T12:31:48;151120.22;;;12.46;100.00
3796;BME280;1913;50.660;7.834;2023-08-06T12:34:14;151097.56;;;12.37;100.00
3796;BME280;1913;50.660;7.834;2023-08-06T12:36:39;151160.53;;;12.63;100.00
3796;BME280;1913;50.660;7.834;2023-08-06T12:39:04;151127.78;;;12.50;100.00
3796;BME280;1913;50.660;7.834;2023-08-06T12:41:30;151175.59;;;12.69;100.00
3796;BME280;1913;50.660;7.834;2023-08-06T12:43:55;151170.56;;;12.67;100.00
3796;BME280;1913;50.660;7.834;2023-08-06T12:46:21;151195.75;;;12.77;100.00
3796;BME280;1913;50.660;7.834;2023-08-06T12:48:46;151166.78;;;12.65;100.00
3796;BME280;1913;50.660;7.834;2023-08-06T12:51:13;151166.78;;;12.65;100.00
3796;BME280;1913;50.660;7.834;2023-08-06T12:53:38;151159.22;;;12.62;100.00
3796;BME280;1913;50.660;7.834;2023-08-06T12:56:04;151150.41;;;12.59;100.00
3796;BME280;1913;50.660;7.834;2023-08-06T12:58:29;151188.19;;;12.74;100.00
3796;BME280;1913;50.660;7.834;2023-08-06T13:00:55;151157.97;;;12.62;100.00
3796;BME280;1913;50.660;7.834;2023-08-06T13:03:21;151154.22;;;12.60;100.00
3796;BME280;1913;50.660;7.834;2023-08-06T13:05:46;151176.84;;;12.69;100.00
3796;BME280;1913;50.660;7.834;2023-08-06T13:08:11;151165.53;;;12.65;100.00
3796;BME280;1913;50.660;7.834;2023-08-06T13:10:37;151199.50;;;12.79;100.00
3796;BME280;1913;50.660;7.834;2023-08-06T13:13:02;151197.00;;;12.78;100.00
3796;BME280;1913;50.660;7.834;2023-08-06T13:15:28;151195.75;;;12.77;100.00
3796;BME280;1913;50.660;7.834;2023-08-06T13:17:53;151191.94;;;12.76;100.00